This is the latest recevied weather packets stored in our database for station/object N6GPM. If no packets are shown the sender has not sent any weather packets the latest 10 day(s).
| Time | Temp. | Humidity | Pressure | Rain* | Wind** | Luminosity | Snow |
|---|---|---|---|---|---|---|---|
| 1777920375 | 15.56° C | 60% | 1019 hPa | 0 mm | - | 169 W/m² | - |
| 1777920070 | 15.56° C | 59% | 1019.3 hPa | 0 mm | - | 230 W/m² | - |
| 1777919767 | 15.56° C | 57% | 1018.8 hPa | 0 mm | - | 351 W/m² | - |
| 1777919465 | 15.56° C | 57% | 1018.8 hPa | 0 mm | - | 275 W/m² | - |
| 1777919162 | 15° C | 59% | 1019.4 hPa | 0 mm | - | 308 W/m² | - |
| 1777918860 | 15° C | 60% | 1019.2 hPa | 0 mm | - | 274 W/m² | - |
| 1777918556 | 16.11° C | 58% | 1019 hPa | 0 mm | - | 196 W/m² | - |
| 1777918254 | 16.11° C | 58% | 1019.3 hPa | 0 mm | - | 196 W/m² | - |
| 1777917953 | 16.67° C | 55% | 1019.4 hPa | 0 mm | - | 246 W/m² | - |
| 1777917652 | 16.67° C | 58% | 1019.2 hPa | 0 mm | - | 330 W/m² | - |
| 1777917349 | 16.11° C | 59% | 1019.2 hPa | 0 mm | - | 909 W/m² | - |
| 1777917045 | 15.56° C | 63% | 1019.2 hPa | 0 mm | - | 563 W/m² | - |
| 1777916743 | 15° C | 64% | 1019 hPa | 0 mm | - | 929 W/m² | - |
| 1777916440 | 15° C | 63% | 1019.3 hPa | 0 mm | - | 988 W/m² | - |
| 1777916137 | 15° C | 65% | 1019 hPa | 0 mm | - | 591 W/m² | - |
| 1777915834 | 15° C | 64% | 1019 hPa | 0 mm | - | 184 W/m² | - |
| 1777915530 | 15° C | 63% | 1018.9 hPa | 0 mm | - | 205 W/m² | - |
| 1777915227 | 15° C | 64% | 1018.8 hPa | 0 mm | - | 311 W/m² | - |
| 1777914924 | 15° C | 66% | 1018.9 hPa | 0 mm | - | 498 W/m² | - |
| 1777914621 | 15° C | 63% | 1018.9 hPa | 0 mm | - | 409 W/m² | - |
| 1777914316 | 15° C | 64% | 1018.8 hPa | 0 mm | - | 434 W/m² | - |
| 1777914015 | 15° C | 64% | 1018.8 hPa | 0 mm | - | 451 W/m² | - |
| 1777913710 | 14.44° C | 65% | 1018.5 hPa | 0 mm | - | 414 W/m² | - |
| 1777913407 | 13.89° C | 66% | 1018.8 hPa | 0 mm | - | 817 W/m² | - |
| 1777913104 | 13.89° C | 66% | 1018.7 hPa | 0 mm | - | 289 W/m² | - |
* Rain latest hour (hover to see other rain measurements)
** Current wind speed in m/s (hover to see current wind gust speed)